Portada
METAR-TAF:

METAR-TAF

Aeroports :

Luganville, Illa Espíritu Santo, Vanuatu

latitud: 15-31S, longitud: 167-13E, altitud: 41 m

Observació

L'informe es va fer fa 54 minuts, a les 04:00 UTC
Vent 6 kt del Sud-Est
Temperatura 30°C
Humitat 66%
Pressió 1004 hPa
Visibilitat 10 km o més
Escasses núvols a una alçada de 2500 ft

METAR: NVSS 200400Z 14006KT 9999 FEW025 30/23 Q1004

Hora: 15:54 (04:54 UTC)

Pronòstic

L'informe es va fer fa 6 hores i 34 minuts, a les 22:20 UTC
Pronòstic vàlid del 20 a les 00 UTC al 20 a les 24 UTC
Vent 10 kt del Est/Sud-Est
Visibilitat 10 km o més
Núvols disperses a una alçada de 2000 ft
Probabilitat 30%
entre IN i TE UTC
Visibilitat: 9000 m
Cel ennuvolat a una alçada de 1800 ft
xàfecs de pluja

TAF: NVSS 192220Z 2000/2024 12010KT 9999 SCT020 PROB30 INTER 2000/2006 9000 -SHRA BKN018

Observacions i pronòstics meteorològics de més de 4000 aeroports (METAR i TAF).

Les estacions disponibles són els punts grocs i vermells al mapa.

Posi el ratolí al punt desitjat per veure el nom de l'estació.

Feu clic per veure les observacions i els pronòstics meteorològics.

Per canviar el mapa: feu clic els botons verds amb una creu de color negre per apropar; al botó verd amb un guió per allunyar la imatge; o en les fletxes verdes per a mapes adjacents.


METAR-TAF: